Portada
METAR-TAF:

METAR-TAF

Aeroports :

Roi Et, Tailàndia

latitud: 16-07-00N, longitud: 103-46-26E, altitud: 138 m

Observació

L'informe es va fer fa 44 minuts, a les 03:00 UTC
Vent 15 kt del Est/Nord-Est
Temperatura 28°C
Humitat 55%
Pressió 1016 hPa
Visibilitat 10 km o més
sense núvols per sota de 1500 mi sense presència de cumulonimbus.

METAR: VTUV 210300Z 07015KT CAVOK 28/18 Q1016 NOSIG

Hora: 10:44 (03:44 UTC)

Pronòstic

L'informe es va fer fa 4 hores i 44 minuts, a les 23:00 UTC
Pronòstic vàlid del 21 a les 00 UTC al 21 a les 24 UTC
Vent 8 kt del Nord-Est
Visibilitat: 9000 m
Escasses núvols a una alçada de 3000 ft

TAF: VTUV 202300Z 2100/2124 04008KT 9000 FEW030

Observacions i pronòstics meteorològics de més de 4000 aeroports (METAR i TAF).

Les estacions disponibles són els punts grocs i vermells al mapa.

Posi el ratolí al punt desitjat per veure el nom de l'estació.

Feu clic per veure les observacions i els pronòstics meteorològics.

Per canviar el mapa: feu clic els botons verds amb una creu de color negre per apropar; al botó verd amb un guió per allunyar la imatge; o en les fletxes verdes per a mapes adjacents.


METAR-TAF: